Juigalpa, Nicaragua

5:11 PM CST on June 03, 2015 (GMT -0600)
Juigalpa | | Change Station
CLOSE
Current Station
Airport
Location: Juigalpa,
Elevation: 295 ft
Nearby Weather Stations

Elev 295 ft 12.10 °N, 85.37 °W | Updated 11 minutes ago

Scattered Clouds
Scattered Clouds
90 °F
Feels Like 105 °F
N
7
Wind Variable Wind from South

Today
High -- | Low -- °F
--% Chance of Precip.
Yesterday
High -- | Low -- °F
Precip. -- in
5:15 AM 6:03 PM
Full, 98% visible
Pressure 29.74 in
Visibility 6.2 miles
Clouds Scattered Clouds 2000 ft
Heat Index 105 °F
Dew Point 79 °F
Humidity 70%
Rainfall 0.00 in
Snow Depth Not available.
UV 1 out of 12
Pollen Not available.
Air Quality Not available.
Flu Activity Not available.
METAR MNJU 032300Z 18006KT 9999 SCT020CB 32/26 Q1007 CB/ESE/SW

More Conditions Fewer Conditions

Pressure 29.74 in
Visibility 6.2 miles
Clouds Scattered Clouds 2000 ft
Heat Index 105 °F
Dew Point 79 °F
Humidity 70%
Rainfall 0.00 in
Snow Depth Not available.
UV 1 out of 12
Pollen Not available.
Air Quality Not available.
Flu Activity Not available.
METAR MNJU 032300Z 18006KT 9999 SCT020CB 32/26 Q1007 CB/ESE/SW

More Conditions Fewer Conditions

10-Day Weather Forecast

×

Almanac

Astronomy

Jun. 03, 2015 Rise Set
Actual Time
Civil Twilight
Nautical Twilight
Astronomical Twilight
Moon
Length of Visible Light
Length of Day
Tomorrow will be .
, % of the Moon is Illuminated

Today's Extremes

Country Highs Country Lows

Community

WunderPhotos

Upload Photos

1,826,298 photos uploaded!

WunderBlogs® & News

Nearby

Air Quality

  Air Quality AQ Index Pollutant
Not available.

Snow Depth

Station Depth Elevation

Earthquake Activity

City Distance Mag. Time & Date
Minimum magnitude displayed is 2.5.

Coastal Water Temperatures

Place Temperature

Stations

Nearby Weather Stations

Station Location Temp. Windchill Dew Point Humidity Wind Precip. Elev Updated Type